Time;durP1;ratioP1;P1;durP2;ratioP2;P2;SDS_P1;SDS_P2;PMS_P1;PMS_P2;Temp;Humidity;BMP_temperature;BMP_pressure;BME280_temperature;BME280_humidity;BME280_pressure;Samples;Min_cycle;Max_cycle;Signal;HPM_P1;HPM_P2
2021/07/04 00:01:05;;;;;;;2.72;1.33;;;;;;;;;;5133953;27;20056;-71
2021/07/04 00:03:31;;;;;;;6.97;1.27;;;;;;;;;;5133939;27;20016;-72
2021/07/04 00:05:57;;;;;;;3.75;1.20;;;;;;;;;;5133843;27;20110;-71
2021/07/04 00:08:24;;;;;;;4.25;1.05;;;;;;;;;;5133955;27;20135;-71
2021/07/04 00:10:52;;;;;;;1.50;1.00;;;;;;;;;;5134169;27;20034;-71
2021/07/04 00:13:18;;;;;;;4.85;1.20;;;;;;;;;;5133770;27;20030;-72
2021/07/04 00:15:45;;;;;;;2.22;1.00;;;;;;;;;;5134128;27;20380;-72
2021/07/04 00:18:16;;;;;;;5.68;1.45;;;;;;;;;;5133546;27;20019;-71
2021/07/04 00:20:42;;;;;;;7.37;1.80;;;;;;;;;;5133745;27;20039;-71
2021/07/04 00:23:09;;;;;;;7.35;1.60;;;;;;;;;;5133842;27;20271;-71
2021/07/04 00:25:35;;;;;;;5.10;1.45;;;;;;;;;;5133655;27;20034;-71
2021/07/04 00:28:01;;;;;;;6.70;1.48;;;;;;;;;;5133309;27;20019;-71
2021/07/04 00:30:27;;;;;;;3.33;1.75;;;;;;;;;;5133732;27;20127;-71
2021/07/04 00:32:54;;;;;;;4.45;1.40;;;;;;;;;;5133628;27;20024;-72
2021/07/04 00:35:21;;;;;;;7.10;1.67;;;;;;;;;;5132477;28;20055;-71
2021/07/04 00:37:48;;;;;;;2.60;1.40;;;;;;;;;;5133705;27;20011;-71
2021/07/04 00:40:14;;;;;;;7.18;1.40;;;;;;;;;;5133634;27;20027;-71
2021/07/04 00:42:40;;;;;;;3.83;1.45;;;;;;;;;;5133716;27;20029;-74
2021/07/04 00:45:11;;;;;;;4.05;1.38;;;;;;;;;;5133662;27;20034;-73
2021/07/04 00:47:37;;;;;;;2.75;1.60;;;;;;;;;;5133679;27;20031;-73
2021/07/04 00:50:05;;;;;;;4.22;1.52;;;;;;;;;;5133047;27;20460;-73
2021/07/04 00:52:31;;;;;;;3.92;1.40;;;;;;;;;;5136405;27;20502;-73
2021/07/04 00:54:57;;;;;;;4.97;1.48;;;;;;;;;;5137130;27;20417;-74
2021/07/04 00:57:23;;;;;;;3.25;1.40;;;;;;;;;;5137170;27;20033;-73
2021/07/04 00:59:49;;;;;;;2.28;1.30;;;;;;;;;;5133999;27;20034;-73
2021/07/04 01:02:15;;;;;;;6.72;1.70;;;;;;;;;;5134081;27;20031;-73
2021/07/04 01:04:41;;;;;;;6.50;1.50;;;;;;;;;;5135283;27;20054;-73
2021/07/04 01:07:09;;;;;;;3.72;1.33;;;;;;;;;;5136541;27;20069;-73
2021/07/04 01:09:35;;;;;;;2.30;1.40;;;;;;;;;;5136780;27;20019;-73
2021/07/04 01:12:01;;;;;;;3.92;1.80;;;;;;;;;;5136761;27;20023;-73
2021/07/04 01:14:27;;;;;;;4.55;1.63;;;;;;;;;;5134957;27;20067;-73
2021/07/04 01:16:53;;;;;;;3.17;1.40;;;;;;;;;;5136601;27;20494;-73
2021/07/04 01:19:22;;;;;;;2.05;1.35;;;;;;;;;;5136707;27;20023;-73
2021/07/04 01:21:48;;;;;;;3.28;1.40;;;;;;;;;;5136426;27;20027;-73
2021/07/04 01:24:15;;;;;;;1.83;1.45;;;;;;;;;;5136553;27;20019;-73
2021/07/04 01:26:41;;;;;;;6.00;1.67;;;;;;;;;;5136349;27;20031;-73
2021/07/04 01:29:07;;;;;;;5.60;1.65;;;;;;;;;;5136331;27;20383;-73
2021/07/04 01:31:33;;;;;;;4.47;1.40;;;;;;;;;;5135154;27;20058;-70
2021/07/04 01:33:59;;;;;;;4.28;1.40;;;;;;;;;;5136036;27;20391;-73
2021/07/04 01:36:25;;;;;;;5.25;1.73;;;;;;;;;;5136122;27;20464;-73
2021/07/04 01:38:52;;;;;;;4.30;1.60;;;;;;;;;;5136259;27;20027;-73
2021/07/04 01:41:18;;;;;;;3.47;1.88;;;;;;;;;;5136290;27;20034;-74
2021/07/04 01:43:44;;;;;;;2.47;1.70;;;;;;;;;;5135780;27;20046;-73
2021/07/04 01:46:10;;;;;;;2.70;1.40;;;;;;;;;;5135989;27;20118;-73
2021/07/04 01:48:36;;;;;;;3.80;1.42;;;;;;;;;;5136337;27;20066;-73
2021/07/04 01:51:02;;;;;;;1.80;1.30;;;;;;;;;;5135984;27;20047;-73
2021/07/04 01:53:28;;;;;;;5.85;1.48;;;;;;;;;;5135927;27;20027;-73
2021/07/04 01:55:54;;;;;;;2.75;1.40;;;;;;;;;;5136028;27;20490;-73
2021/07/04 01:58:21;;;;;;;3.70;1.23;;;;;;;;;;5135542;27;20027;-73
2021/07/04 02:00:47;;;;;;;3.67;1.60;;;;;;;;;;5135911;27;20023;-73
2021/07/04 02:03:13;;;;;;;9.85;1.50;;;;;;;;;;5135275;27;20126;-73
2021/07/04 02:05:40;;;;;;;2.55;1.45;;;;;;;;;;5134464;27;20352;-73
2021/07/04 02:08:07;;;;;;;4.25;1.42;;;;;;;;;;5135747;27;20019;-73
2021/07/04 02:10:35;;;;;;;5.93;1.33;;;;;;;;;;5135693;27;20023;-73
2021/07/04 02:13:02;;;;;;;5.53;1.50;;;;;;;;;;5135776;27;20076;-73
2021/07/04 02:15:29;;;;;;;5.65;1.67;;;;;;;;;;5135502;27;20050;-73
2021/07/04 02:17:56;;;;;;;4.47;1.70;;;;;;;;;;5135534;27;20023;-73
2021/07/04 02:20:33;;;;;;;2.67;1.13;;;;;;;;;;5135644;27;20055;-73
2021/07/04 02:23:01;;;;;;;5.38;1.42;;;;;;;;;;5135378;27;20024;-73
2021/07/04 02:25:27;;;;;;;8.88;1.75;;;;;;;;;;5135621;27;20045;-73
2021/07/04 02:27:54;;;;;;;4.63;1.42;;;;;;;;;;5135480;27;20027;-73
2021/07/04 02:30:20;;;;;;;5.43;1.50;;;;;;;;;;5135263;27;20024;-73
2021/07/04 02:32:46;;;;;;;4.32;1.48;;;;;;;;;;5135264;27;20029;-73
2021/07/04 02:35:12;;;;;;;2.78;1.48;;;;;;;;;;5135094;27;20051;-73
2021/07/04 02:37:38;;;;;;;4.10;1.92;;;;;;;;;;5134972;27;20536;-73
2021/07/04 02:40:05;;;;;;;2.85;1.60;;;;;;;;;;5135056;27;20051;-73
2021/07/04 02:42:32;;;;;;;2.50;1.58;;;;;;;;;;5135080;27;20023;-72
2021/07/04 02:45:00;;;;;;;6.30;2.40;;;;;;;;;;5134855;27;20387;-73
2021/07/04 02:47:27;;;;;;;7.97;1.88;;;;;;;;;;5134856;27;20031;-73
2021/07/04 02:49:53;;;;;;;2.80;1.40;;;;;;;;;;5134780;27;20106;-73
2021/07/04 02:52:19;;;;;;;7.43;2.05;;;;;;;;;;5134620;27;20037;-73
2021/07/04 02:54:45;;;;;;;11.20;2.72;;;;;;;;;;5135012;27;20031;-70
2021/07/04 02:57:11;;;;;;;10.55;2.67;;;;;;;;;;5134854;27;20064;-72
2021/07/04 02:59:37;;;;;;;12.77;2.50;;;;;;;;;;5134828;27;20106;-72
2021/07/04 03:02:03;;;;;;;9.13;2.28;;;;;;;;;;5134618;27;20352;-72
2021/07/04 03:04:29;;;;;;;6.38;1.80;;;;;;;;;;5134444;27;20031;-72
2021/07/04 03:06:57;;;;;;;4.13;1.95;;;;;;;;;;5134043;27;20031;-73
2021/07/04 03:09:23;;;;;;;5.32;1.80;;;;;;;;;;5134619;27;20444;-73
2021/07/04 03:11:49;;;;;;;5.78;2.10;;;;;;;;;;5134401;27;20103;-72
2021/07/04 03:14:15;;;;;;;4.95;1.90;;;;;;;;;;5133527;27;20562;-72
2021/07/04 03:16:41;;;;;;;3.40;1.63;;;;;;;;;;5134523;27;20098;-73
2021/07/04 03:19:07;;;;;;;5.03;1.60;;;;;;;;;;5134619;27;20024;-72
2021/07/04 03:21:33;;;;;;;2.80;1.88;;;;;;;;;;5134447;27;20030;-72
2021/07/04 03:23:59;;;;;;;3.05;1.50;;;;;;;;;;5134343;27;20023;-72
2021/07/04 03:26:25;;;;;;;3.60;1.73;;;;;;;;;;5134334;27;20391;-73
2021/07/04 03:28:51;;;;;;;4.47;2.00;;;;;;;;;;5134371;27;20463;-72
2021/07/04 03:31:17;;;;;;;7.50;2.03;;;;;;;;;;5134198;27;20031;-73
2021/07/04 03:33:43;;;;;;;4.90;1.50;;;;;;;;;;5134284;27;20467;-72
2021/07/04 03:36:09;;;;;;;8.63;1.80;;;;;;;;;;5133819;27;20019;-73
2021/07/04 03:38:35;;;;;;;7.65;1.77;;;;;;;;;;5134396;27;20054;-73
2021/07/04 03:41:01;;;;;;;4.68;1.50;;;;;;;;;;5134318;27;20115;-73
2021/07/04 03:43:27;;;;;;;5.30;1.52;;;;;;;;;;5134232;27;20027;-73
2021/07/04 03:45:53;;;;;;;2.45;1.20;;;;;;;;;;5132698;28;20034;-73
2021/07/04 03:48:20;;;;;;;2.78;1.40;;;;;;;;;;5134023;27;20067;-73
2021/07/04 03:50:46;;;;;;;2.17;1.50;;;;;;;;;;5133982;27;20131;-73
2021/07/04 03:53:12;;;;;;;3.00;1.55;;;;;;;;;;5133914;27;20031;-73
2021/07/04 03:55:38;;;;;;;4.43;1.58;;;;;;;;;;5133983;27;20068;-73
2021/07/04 03:58:04;;;;;;;5.53;1.02;;;;;;;;;;5134159;27;20039;-73
2021/07/04 04:00:30;;;;;;;4.85;1.40;;;;;;;;;;5133678;27;20447;-72
2021/07/04 04:02:56;;;;;;;4.20;1.40;;;;;;;;;;5134034;27;20459;-72
2021/07/04 04:05:22;;;;;;;3.80;1.35;;;;;;;;;;5134054;27;20057;-72
2021/07/04 04:07:48;;;;;;;3.38;1.42;;;;;;;;;;5134122;27;20039;-73
2021/07/04 04:10:15;;;;;;;4.97;1.48;;;;;;;;;;5133865;27;20020;-72
2021/07/04 04:12:41;;;;;;;2.70;1.35;;;;;;;;;;5133829;27;20463;-72
2021/07/04 04:15:08;;;;;;;6.60;1.45;;;;;;;;;;5133698;27;20047;-72
2021/07/04 04:17:34;;;;;;;3.40;1.50;;;;;;;;;;5133979;27;20197;-72
2021/07/04 04:20:00;;;;;;;2.22;1.35;;;;;;;;;;5133812;27;20487;-72
2021/07/04 04:22:26;;;;;;;4.32;1.55;;;;;;;;;;5133742;27;20107;-72
2021/07/04 04:24:52;;;;;;;6.47;1.80;;;;;;;;;;5134150;27;20023;-72
2021/07/04 04:27:18;;;;;;;3.47;1.30;;;;;;;;;;5137783;27;20181;-72
2021/07/04 04:29:44;;;;;;;5.07;1.65;;;;;;;;;;5137771;27;20023;-72
2021/07/04 04:32:10;;;;;;;2.53;1.38;;;;;;;;;;5137751;27;20067;-72
2021/07/04 04:34:36;;;;;;;3.45;1.80;;;;;;;;;;5137540;27;20068;-72
2021/07/04 04:37:03;;;;;;;2.35;1.55;;;;;;;;;;5137410;27;20162;-73
2021/07/04 04:39:29;;;;;;;5.88;1.70;;;;;;;;;;5137820;27;20084;-72
2021/07/04 04:41:55;;;;;;;3.03;1.60;;;;;;;;;;5137258;27;20123;-72
2021/07/04 04:44:21;;;;;;;3.58;1.40;;;;;;;;;;5137367;27;20023;-72
2021/07/04 04:46:47;;;;;;;2.78;1.40;;;;;;;;;;5137319;27;20031;-72
2021/07/04 04:49:13;;;;;;;2.15;1.33;;;;;;;;;;5137390;27;20067;-72
2021/07/04 04:51:39;;;;;;;2.67;1.50;;;;;;;;;;5137080;27;20031;-72
2021/07/04 04:54:06;;;;;;;4.50;1.60;;;;;;;;;;5137232;27;20106;-72
2021/07/04 04:56:32;;;;;;;3.78;1.50;;;;;;;;;;5135888;27;20051;-72
2021/07/04 04:58:58;;;;;;;2.03;1.25;;;;;;;;;;5137236;27;20110;-73
2021/07/04 05:01:26;;;;;;;2.53;1.50;;;;;;;;;;5137296;27;20024;-72
2021/07/04 05:03:52;;;;;;;1.58;1.48;;;;;;;;;;5137000;27;20136;-72
2021/07/04 05:06:19;;;;;;;3.33;1.63;;;;;;;;;;5136814;27;20459;-73
2021/07/04 05:08:45;;;;;;;3.13;1.42;;;;;;;;;;5137210;27;20023;-72
2021/07/04 05:11:11;;;;;;;2.53;1.27;;;;;;;;;;5137010;27;20056;-73
2021/07/04 05:13:38;;;;;;;1.67;1.45;;;;;;;;;;5136491;27;20100;-73
2021/07/04 05:16:04;;;;;;;2.50;1.35;;;;;;;;;;5136658;27;20023;-73
2021/07/04 05:18:30;;;;;;;2.30;1.50;;;;;;;;;;5136737;27;20019;-72
2021/07/04 05:20:56;;;;;;;5.63;1.70;;;;;;;;;;5135307;27;20027;-72
2021/07/04 05:23:22;;;;;;;3.00;1.40;;;;;;;;;;5136626;27;20062;-72
2021/07/04 05:25:49;;;;;;;3.90;1.45;;;;;;;;;;5136500;27;20031;-72
2021/07/04 05:28:16;;;;;;;3.75;1.40;;;;;;;;;;5136315;27;20035;-73
2021/07/04 05:30:42;;;;;;;4.50;1.63;;;;;;;;;;5136545;27;20041;-72
2021/07/04 05:33:08;;;;;;;5.38;1.60;;;;;;;;;;5136389;27;20038;-73
2021/07/04 05:35:34;;;;;;;7.80;1.90;;;;;;;;;;5136407;27;20019;-72
2021/07/04 05:38:00;;;;;;;3.00;1.48;;;;;;;;;;5135522;27;20035;-72
2021/07/04 05:40:26;;;;;;;2.88;1.60;;;;;;;;;;5136088;27;20015;-72
2021/07/04 05:42:56;;;;;;;4.72;1.75;;;;;;;;;;5134814;27;20031;-72
2021/07/04 05:45:23;;;;;;;2.83;1.50;;;;;;;;;;5133447;27;20046;-71
2021/07/04 05:47:49;;;;;;;4.03;1.75;;;;;;;;;;5133413;27;20043;-74
2021/07/04 05:50:15;;;;;;;3.72;1.70;;;;;;;;;;5134970;27;20131;-71
2021/07/04 05:52:42;;;;;;;2.67;1.25;;;;;;;;;;5135845;27;20040;-71
2021/07/04 05:55:08;;;;;;;3.38;1.95;;;;;;;;;;5135984;27;20084;-74
2021/07/04 05:57:34;;;;;;;2.38;1.48;;;;;;;;;;5135395;27;20112;-72
2021/07/04 06:00:00;;;;;;;5.57;1.50;;;;;;;;;;5120381;27;20031;-72
2021/07/04 06:02:26;;;;;;;3.80;1.50;;;;;;;;;;5114352;28;20028;-72
2021/07/04 06:04:52;;;;;;;5.00;1.70;;;;;;;;;;5114220;28;20024;-72
2021/07/04 06:07:18;;;;;;;6.32;1.90;;;;;;;;;;5113733;28;20045;-71
2021/07/04 06:09:44;;;;;;;2.65;1.50;;;;;;;;;;5114313;28;20489;-73
2021/07/04 06:12:10;;;;;;;2.60;1.38;;;;;;;;;;5114214;28;20081;-72
2021/07/04 06:14:37;;;;;;;4.93;1.40;;;;;;;;;;5113926;28;20070;-72
2021/07/04 06:17:03;;;;;;;3.55;1.30;;;;;;;;;;5114110;28;20392;-73
2021/07/04 06:19:29;;;;;;;2.88;1.42;;;;;;;;;;5114672;28;20052;-72
2021/07/04 06:21:55;;;;;;;4.60;1.50;;;;;;;;;;5115735;28;20157;-72
2021/07/04 06:24:21;;;;;;;6.15;1.30;;;;;;;;;;5114353;28;20034;-72
2021/07/04 06:26:48;;;;;;;3.80;1.23;;;;;;;;;;5112960;28;20407;-73
2021/07/04 06:29:15;;;;;;;2.33;1.50;;;;;;;;;;5111370;28;20024;-72
2021/07/04 06:31:41;;;;;;;2.22;1.50;;;;;;;;;;5112733;28;20070;-72
2021/07/04 06:34:07;;;;;;;3.00;1.15;;;;;;;;;;5113360;27;20012;-72
2021/07/04 06:36:33;;;;;;;2.90;1.50;;;;;;;;;;5113849;28;20023;-72
2021/07/04 06:38:59;;;;;;;3.70;1.50;;;;;;;;;;5114260;28;20045;-72
2021/07/04 06:41:25;;;;;;;4.82;1.48;;;;;;;;;;5114474;28;20027;-72
2021/07/04 06:43:52;;;;;;;4.20;1.77;;;;;;;;;;5114550;28;20027;-72
2021/07/04 06:46:19;;;;;;;3.17;2.00;;;;;;;;;;5114042;28;20061;-72
2021/07/04 06:48:45;;;;;;;3.10;1.52;;;;;;;;;;5114031;28;20429;-72
2021/07/04 06:51:11;;;;;;;2.28;1.73;;;;;;;;;;5112800;28;20438;-72
2021/07/04 06:53:37;;;;;;;3.35;1.80;;;;;;;;;;5114558;28;20406;-72
2021/07/04 06:56:03;;;;;;;3.72;1.70;;;;;;;;;;5114320;27;20039;-72
2021/07/04 06:58:29;;;;;;;2.78;1.95;;;;;;;;;;5113943;28;20030;-72
2021/07/04 07:00:55;;;;;;;2.92;1.90;;;;;;;;;;5114104;28;20605;-72
2021/07/04 07:03:22;;;;;;;3.88;1.92;;;;;;;;;;5113906;28;20019;-72
2021/07/04 07:05:48;;;;;;;2.28;1.67;;;;;;;;;;5113608;28;20020;-72
2021/07/04 07:08:14;;;;;;;3.15;1.85;;;;;;;;;;5114057;28;20034;-72
2021/07/04 07:10:40;;;;;;;3.97;1.90;;;;;;;;;;5114063;28;20027;-72
2021/07/04 07:13:06;;;;;;;2.33;1.98;;;;;;;;;;5113792;28;20035;-72
2021/07/04 07:15:32;;;;;;;3.70;1.98;;;;;;;;;;5113914;28;20165;-72
2021/07/04 07:17:58;;;;;;;4.50;2.22;;;;;;;;;;5113801;28;20024;-68
2021/07/04 07:20:25;;;;;;;5.60;2.20;;;;;;;;;;5113522;28;20530;-67
2021/07/04 07:22:52;;;;;;;3.35;2.00;;;;;;;;;;5113436;28;20020;-68
2021/07/04 07:25:18;;;;;;;4.72;2.00;;;;;;;;;;5113788;28;20024;-68
2021/07/04 07:27:44;;;;;;;3.45;2.15;;;;;;;;;;5113337;28;20035;-68
2021/07/04 07:30:11;;;;;;;3.10;1.77;;;;;;;;;;5113728;28;20031;-69
2021/07/04 07:32:38;;;;;;;18.48;1.98;;;;;;;;;;5113375;28;20019;-68
2021/07/04 07:35:05;;;;;;;2.60;1.77;;;;;;;;;;5112867;28;20027;-69
2021/07/04 07:37:31;;;;;;;2.45;1.73;;;;;;;;;;5113429;28;20030;-68
2021/07/04 07:39:58;;;;;;;4.05;1.90;;;;;;;;;;5111509;28;20035;-69
2021/07/04 07:42:24;;;;;;;4.45;2.30;;;;;;;;;;5110869;28;20027;-69
2021/07/04 07:44:50;;;;;;;3.30;2.05;;;;;;;;;;5109479;28;20046;-67
2021/07/04 07:47:16;;;;;;;7.88;1.77;;;;;;;;;;5110862;28;20032;-68
2021/07/04 07:49:42;;;;;;;3.78;1.80;;;;;;;;;;5113173;28;20057;-68
2021/07/04 07:52:08;;;;;;;2.72;1.80;;;;;;;;;;5113750;28;20055;-67
2021/07/04 07:54:34;;;;;;;2.53;2.00;;;;;;;;;;5112336;28;20027;-67
2021/07/04 07:57:02;;;;;;;5.47;2.35;;;;;;;;;;5113459;28;20027;-67
2021/07/04 07:59:28;;;;;;;4.60;2.15;;;;;;;;;;5113452;28;20027;-68
2021/07/04 08:01:54;;;;;;;9.43;2.22;;;;;;;;;;5117180;28;20027;-67
2021/07/04 08:04:20;;;;;;;5.13;2.00;;;;;;;;;;5117417;28;20102;-68
2021/07/04 08:06:46;;;;;;;5.07;2.15;;;;;;;;;;5117360;28;20032;-68
2021/07/04 08:09:12;;;;;;;4.05;2.25;;;;;;;;;;5117089;27;20026;-67
2021/07/04 08:11:38;;;;;;;3.45;2.08;;;;;;;;;;5117641;28;20467;-67
2021/07/04 08:14:05;;;;;;;4.60;1.90;;;;;;;;;;5117087;28;20042;-67
2021/07/04 08:16:31;;;;;;;7.18;2.03;;;;;;;;;;5117351;28;20364;-68
2021/07/04 08:18:57;;;;;;;5.63;2.00;;;;;;;;;;5117064;28;20059;-67
2021/07/04 08:21:23;;;;;;;6.05;2.35;;;;;;;;;;5117153;28;20024;-68
2021/07/04 08:23:49;;;;;;;4.55;2.20;;;;;;;;;;5117093;28;20023;-68
2021/07/04 08:26:16;;;;;;;2.92;2.10;;;;;;;;;;5116804;28;20357;-67
2021/07/04 08:28:42;;;;;;;5.93;2.30;;;;;;;;;;5115927;28;20384;-67
2021/07/04 08:31:08;;;;;;;5.28;2.42;;;;;;;;;;5117241;28;20019;-67
2021/07/04 08:33:34;;;;;;;4.35;2.53;;;;;;;;;;5116924;28;20028;-68
2021/07/04 08:36:00;;;;;;;4.25;2.17;;;;;;;;;;5117028;28;20025;-67
2021/07/04 08:38:26;;;;;;;5.90;2.53;;;;;;;;;;5117090;28;20027;-68
2021/07/04 08:40:52;;;;;;;6.60;2.13;;;;;;;;;;5116508;28;20020;-67
2021/07/04 08:43:28;;;;;;;3.65;2.40;;;;;;;;;;5116766;28;20050;-67
2021/07/04 08:45:54;;;;;;;6.45;2.10;;;;;;;;;;5116770;28;20066;-68
2021/07/04 08:48:20;;;;;;;4.30;2.25;;;;;;;;;;5116696;28;20103;-68
2021/07/04 08:50:46;;;;;;;3.65;2.33;;;;;;;;;;5116649;28;20051;-67
2021/07/04 08:53:12;;;;;;;3.78;2.00;;;;;;;;;;5116685;28;20048;-67
2021/07/04 08:55:38;;;;;;;4.65;2.17;;;;;;;;;;5116517;28;20023;-67
2021/07/04 08:58:04;;;;;;;2.58;1.80;;;;;;;;;;5116590;28;20103;-67
2021/07/04 09:00:30;;;;;;;9.38;2.15;;;;;;;;;;5116575;28;20024;-68
2021/07/04 09:02:56;;;;;;;2.53;1.90;;;;;;;;;;5114733;28;20076;-68
2021/07/04 09:05:23;;;;;;;4.05;1.95;;;;;;;;;;5116357;28;20019;-68
2021/07/04 09:07:50;;;;;;;4.60;2.10;;;;;;;;;;5116205;28;20036;-69
2021/07/04 09:10:18;;;;;;;2.00;1.80;;;;;;;;;;5116297;28;20012;-68
2021/07/04 09:12:49;;;;;;;6.20;1.83;;;;;;;;;;5114961;28;20023;-69
2021/07/04 09:15:17;;;;;;;3.20;1.83;;;;;;;;;;5115990;28;20051;-68
2021/07/04 09:17:48;;;;;;;3.88;2.10;;;;;;;;;;5115956;28;20459;-69
2021/07/04 09:20:36;;;;;;;3.70;1.90;;;;;;;;;;5115996;28;20394;-68
2021/07/04 09:23:03;;;;;;;5.53;1.85;;;;;;;;;;5115815;28;20108;-68
2021/07/04 09:25:30;;;;;;;6.75;1.80;;;;;;;;;;5115901;28;20028;-68
2021/07/04 09:28:05;;;;;;;2.25;1.70;;;;;;;;;;5115790;28;20069;-69
2021/07/04 09:30:41;;;;;;;3.63;1.90;;;;;;;;;;5116048;28;20023;-68
2021/07/04 09:33:22;;;;;;;3.72;1.60;;;;;;;;;;5115590;27;20019;-68
2021/07/04 09:36:03;;;;;;;1.58;1.15;;;;;;;;;;5115980;28;20519;-68
2021/07/04 09:38:31;;;;;;;5.15;1.88;;;;;;;;;;5115408;28;20046;-68
2021/07/04 09:40:57;;;;;;;1.70;1.30;;;;;;;;;;5115820;28;20019;-68
2021/07/04 09:43:23;;;;;;;5.93;1.90;;;;;;;;;;5115740;28;20023;-69
2021/07/04 09:45:55;;;;;;;6.43;1.70;;;;;;;;;;5115850;27;20020;-67
2021/07/04 09:48:28;;;;;;;5.22;1.85;;;;;;;;;;5115342;28;20077;-69
2021/07/04 09:50:54;;;;;;;3.45;1.60;;;;;;;;;;5115093;28;20049;-68
2021/07/04 09:53:21;;;;;;;2.25;1.52;;;;;;;;;;5115552;28;20040;-68
2021/07/04 09:55:51;;;;;;;3.45;1.60;;;;;;;;;;5115427;28;20031;-67
2021/07/04 09:58:17;;;;;;;1.58;1.48;;;;;;;;;;5115548;28;20098;-68
2021/07/04 10:00:44;;;;;;;3.60;1.70;;;;;;;;;;5115340;28;20028;-68
2021/07/04 10:03:11;;;;;;;3.58;1.30;;;;;;;;;;5115056;28;20521;-68
2021/07/04 10:05:39;;;;;;;1.80;1.30;;;;;;;;;;5115029;28;20491;-67
2021/07/04 10:08:24;;;;;;;3.08;1.55;;;;;;;;;;5114976;27;20106;-68
2021/07/04 10:10:52;;;;;;;3.28;1.58;;;;;;;;;;5115346;28;20422;-68
2021/07/04 10:13:18;;;;;;;3.35;1.70;;;;;;;;;;5114764;28;20058;-68
2021/07/04 10:15:44;;;;;;;3.72;1.73;;;;;;;;;;5114866;28;20028;-68
2021/07/04 10:18:12;;;;;;;2.45;1.40;;;;;;;;;;5115091;28;20066;-68
2021/07/04 10:20:38;;;;;;;3.55;1.85;;;;;;;;;;5114760;28;20019;-67
2021/07/04 10:23:09;;;;;;;2.55;1.33;;;;;;;;;;5114257;28;20046;-67
2021/07/04 10:25:35;;;;;;;2.63;1.60;;;;;;;;;;5114573;28;20027;-67
2021/07/04 10:28:01;;;;;;;3.33;1.73;;;;;;;;;;5114702;28;20075;-67
2021/07/04 10:30:28;;;;;;;2.90;1.88;;;;;;;;;;5114832;27;20027;-67
2021/07/04 10:33:04;;;;;;;2.55;1.83;;;;;;;;;;5114503;28;20105;-68
2021/07/04 10:35:30;;;;;;;5.90;2.00;;;;;;;;;;5113402;28;20434;-68
2021/07/04 10:38:11;;;;;;;2.65;1.80;;;;;;;;;;5114423;28;20031;-68
2021/07/04 10:40:37;;;;;;;4.68;1.77;;;;;;;;;;5114290;28;20051;-68
2021/07/04 10:43:03;;;;;;;2.70;1.60;;;;;;;;;;5114474;28;20024;-68
2021/07/04 10:45:35;;;;;;;2.00;1.80;;;;;;;;;;5114660;28;20024;-68
2021/07/04 10:48:21;;;;;;;4.20;1.63;;;;;;;;;;5114062;28;20027;-68
2021/07/04 10:51:06;;;;;;;2.50;1.90;;;;;;;;;;5114309;28;20023;-68
2021/07/04 10:53:48;;;;;;;2.10;1.50;;;;;;;;;;5114520;28;20035;-67
2021/07/04 10:56:33;;;;;;;4.07;1.50;;;;;;;;;;5114474;28;20556;-68
2021/07/04 10:59:03;;;;;;;3.67;1.80;;;;;;;;;;5114539;28;20032;-68
2021/07/04 11:01:53;;;;;;;3.45;1.80;;;;;;;;;;5113963;28;20023;-68
2021/07/04 11:04:31;;;;;;;6.07;1.88;;;;;;;;;;5105663;28;20059;-68
2021/07/04 11:06:58;;;;;;;2.20;1.75;;;;;;;;;;5113818;28;20114;-68
2021/07/04 11:09:25;;;;;;;2.20;1.75;;;;;;;;;;5113766;28;20026;-68
2021/07/04 11:11:51;;;;;;;5.30;1.80;;;;;;;;;;5113644;27;20463;-68
2021/07/04 11:14:17;;;;;;;5.85;1.98;;;;;;;;;;5109367;28;20466;-68
2021/07/04 11:17:02;;;;;;;5.00;1.40;;;;;;;;;;5110736;28;20502;-68
2021/07/04 11:19:28;;;;;;;1.73;1.50;;;;;;;;;;5113179;28;20023;-67
2021/07/04 11:21:58;;;;;;;2.75;1.85;;;;;;;;;;5113691;27;20027;-68
2021/07/04 11:24:25;;;;;;;2.55;1.50;;;;;;;;;;5113059;28;20031;-68
2021/07/04 11:27:30;;;;;;;2.38;1.70;;;;;;;;;;5113351;28;20028;-69
2021/07/04 11:30:15;;;;;;;2.67;1.70;;;;;;;;;;5050740;28;20532;-68
2021/07/04 11:32:41;;;;;;;4.40;1.90;;;;;;;;;;5050756;28;20040;-68
2021/07/04 11:35:07;;;;;;;2.40;1.73;;;;;;;;;;5088133;28;20062;-68
2021/07/04 11:37:39;;;;;;;2.40;1.70;;;;;;;;;;5112816;28;20387;-69
2021/07/04 11:40:06;;;;;;;2.38;1.70;;;;;;;;;;5110847;28;20106;-69
2021/07/04 11:42:32;;;;;;;2.55;1.73;;;;;;;;;;5110916;28;20059;-68
2021/07/04 11:44:58;;;;;;;1.92;1.75;;;;;;;;;;5112037;28;20019;-68
2021/07/04 11:47:24;;;;;;;4.65;1.67;;;;;;;;;;5112988;28;20043;-68
2021/07/04 11:49:50;;;;;;;4.95;1.90;;;;;;;;;;5113452;28;20027;-68
2021/07/04 11:52:20;;;;;;;5.07;2.45;;;;;;;;;;5112935;28;20031;-70
2021/07/04 11:54:46;;;;;;;7.53;2.35;;;;;;;;;;5113228;28;20023;-69
2021/07/04 11:57:34;;;;;;;4.28;2.20;;;;;;;;;;5113457;28;20388;-69
2021/07/04 12:00:01;;;;;;;2.97;2.30;;;;;;;;;;5112764;28;20085;-68
2021/07/04 12:02:28;;;;;;;3.47;2.10;;;;;;;;;;5112866;28;20035;-72
2021/07/04 12:04:54;;;;;;;4.50;2.88;;;;;;;;;;5113437;28;20395;-71
2021/07/04 12:07:27;;;;;;;4.18;2.50;;;;;;;;;;5112623;28;20039;-70
2021/07/04 12:09:54;;;;;;;4.50;2.30;;;;;;;;;;5113034;28;20110;-70
2021/07/04 12:12:23;;;;;;;3.10;2.40;;;;;;;;;;5112886;28;20139;-71
2021/07/04 12:14:50;;;;;;;2.38;1.80;;;;;;;;;;5112873;28;20075;-71
2021/07/04 12:17:16;;;;;;;2.45;2.20;;;;;;;;;;5112697;28;20056;-71
2021/07/04 12:19:43;;;;;;;2.20;2.00;;;;;;;;;;5113063;28;20023;-71
2021/07/04 12:22:11;;;;;;;2.88;2.08;;;;;;;;;;5112909;28;20411;-70
2021/07/04 12:24:37;;;;;;;3.00;2.10;;;;;;;;;;5112700;28;20027;-70
2021/07/04 12:27:03;;;;;;;3.25;2.13;;;;;;;;;;5112696;28;20039;-69
2021/07/04 12:29:30;;;;;;;4.57;2.10;;;;;;;;;;5112587;28;20565;-69
2021/07/04 12:32:05;;;;;;;2.70;1.83;;;;;;;;;;5112254;28;20026;-70
2021/07/04 12:34:32;;;;;;;3.03;2.00;;;;;;;;;;5112710;28;20416;-71
2021/07/04 12:36:59;;;;;;;5.07;1.75;;;;;;;;;;5112512;28;20446;-70
2021/07/04 12:39:29;;;;;;;6.85;1.70;;;;;;;;;;5112332;28;20110;-70
2021/07/04 12:41:55;;;;;;;2.80;1.92;;;;;;;;;;5111679;28;20543;-70
2021/07/04 12:44:21;;;;;;;2.67;1.95;;;;;;;;;;5112031;28;20143;-69
2021/07/04 12:46:47;;;;;;;3.58;2.17;;;;;;;;;;5113504;28;20028;-70
2021/07/04 12:49:14;;;;;;;2.28;1.80;;;;;;;;;;5116236;28;20442;-69
2021/07/04 12:51:43;;;;;;;1.92;1.50;;;;;;;;;;5116492;28;20069;-69
2021/07/04 12:54:15;;;;;;;2.28;1.70;;;;;;;;;;5116291;28;20115;-70
2021/07/04 12:56:41;;;;;;;;;;;;;;;;;;5116938;28;20027;-70
2021/07/04 12:59:07;;;;;;;2.72;1.70;;;;;;;;;;5116420;28;19904;-69
2021/07/04 13:01:38;;;;;;;2.80;1.90;;;;;;;;;;5116034;27;20022;-69
2021/07/04 13:04:04;;;;;;;3.25;1.70;;;;;;;;;;5116351;28;20055;-69
2021/07/04 13:06:42;;;;;;;2.88;1.70;;;;;;;;;;5114896;28;20028;-69
2021/07/04 13:09:09;;;;;;;2.30;1.65;;;;;;;;;;5115063;28;20399;-69
2021/07/04 13:11:37;;;;;;;2.75;1.80;;;;;;;;;;5116033;28;20016;-70
2021/07/04 13:14:07;;;;;;;3.47;1.63;;;;;;;;;;5115786;28;20047;-70
2021/07/04 13:16:34;;;;;;;3.40;1.60;;;;;;;;;;5115989;28;20099;-69
2021/07/04 13:19:19;;;;;;;2.45;1.63;;;;;;;;;;5116016;28;20110;-70
2021/07/04 13:21:45;;;;;;;4.03;1.60;;;;;;;;;;5115987;28;20220;-69
2021/07/04 13:24:24;;;;;;;2.30;1.50;;;;;;;;;;5115777;28;20121;-70
2021/07/04 13:26:51;;;;;;;1.98;1.35;;;;;;;;;;5115721;27;20112;-69
2021/07/04 13:29:22;;;;;;;3.03;1.63;;;;;;;;;;5115649;28;20023;-69
2021/07/04 13:32:27;;;;;;;3.13;1.55;;;;;;;;;;5115800;28;20028;-69
2021/07/04 13:34:56;;;;;;;2.88;1.55;;;;;;;;;;5053147;28;20611;-70
2021/07/04 13:37:24;;;;;;;2.33;1.88;;;;;;;;;;5053022;28;20102;-70
2021/07/04 13:39:53;;;;;;;4.15;2.10;;;;;;;;;;5085000;28;20489;-70
2021/07/04 13:42:19;;;;;;;3.60;1.65;;;;;;;;;;5115439;28;20115;-69
2021/07/04 13:44:45;;;;;;;5.80;1.90;;;;;;;;;;5115597;28;20027;-69
2021/07/04 13:47:11;;;;;;;3.65;2.15;;;;;;;;;;5115391;28;20035;-70
2021/07/04 13:49:37;;;;;;;2.17;1.63;;;;;;;;;;5113058;27;20032;-69
2021/07/04 13:52:03;;;;;;;3.30;1.80;;;;;;;;;;5111899;28;20028;-69
2021/07/04 13:54:29;;;;;;;2.75;1.63;;;;;;;;;;5113143;28;20633;-69
2021/07/04 13:56:55;;;;;;;2.65;1.60;;;;;;;;;;5114567;28;20544;-69
2021/07/04 13:59:21;;;;;;;3.67;1.88;;;;;;;;;;5113488;27;20468;-69
2021/07/04 14:01:47;;;;;;;5.68;2.05;;;;;;;;;;5114892;27;20110;-70
2021/07/04 14:04:15;;;;;;;3.72;1.98;;;;;;;;;;5114230;28;20024;-69
2021/07/04 14:06:41;;;;;;;5.10;2.60;;;;;;;;;;5114092;28;20037;-69
2021/07/04 14:09:07;;;;;;;2.80;1.52;;;;;;;;;;5113352;28;20380;-70
2021/07/04 14:11:33;;;;;;;3.67;1.73;;;;;;;;;;5093950;28;20032;-69
2021/07/04 14:13:59;;;;;;;3.55;2.75;;;;;;;;;;5094031;28;20085;-71
2021/07/04 14:16:25;;;;;;;3.10;2.28;;;;;;;;;;5093278;28;20109;-70
2021/07/04 14:18:51;;;;;;;4.97;2.20;;;;;;;;;;5092993;28;20048;-70
2021/07/04 14:21:17;;;;;;;3.00;1.85;;;;;;;;;;5108858;28;20055;-70
2021/07/04 14:23:43;;;;;;;3.30;1.80;;;;;;;;;;5113976;28;20104;-70
2021/07/04 14:26:09;;;;;;;1.80;1.40;;;;;;;;;;5096498;28;20028;-70
2021/07/04 14:28:35;;;;;;;2.65;1.42;;;;;;;;;;5093547;28;20111;-70
2021/07/04 14:31:01;;;;;;;2.33;1.27;;;;;;;;;;5093922;28;20489;-69
2021/07/04 14:33:27;;;;;;;5.07;1.63;;;;;;;;;;5093785;28;20028;-70
2021/07/04 14:35:53;;;;;;;4.22;2.30;;;;;;;;;;5093529;28;20016;-70
2021/07/04 14:38:19;;;;;;;3.90;1.73;;;;;;;;;;5093470;28;20039;-72
2021/07/04 14:40:45;;;;;;;5.85;1.85;;;;;;;;;;5093164;28;20016;-71
2021/07/04 14:43:11;;;;;;;3.58;2.33;;;;;;;;;;5112402;28;20032;-70
2021/07/04 14:45:38;;;;;;;4.90;2.20;;;;;;;;;;5113632;28;20089;-70